createdAt,value
2024-02-08T00:00:01.766Z,83.20153342354497
2024-02-08T00:15:02.405Z,83.42423630378407
2024-02-08T00:30:02.156Z,83.65542824854906
2024-02-08T00:45:01.803Z,84.0104860560611
2024-02-08T01:00:02.475Z,84.01355165337179
2024-02-08T01:15:02.090Z,84.35406152149052
2024-02-08T01:30:01.842Z,84.64716187805449
2024-02-08T01:45:02.548Z,84.6887610654259
2024-02-08T02:00:02.206Z,84.89376308695557
2024-02-08T02:15:01.877Z,85.15969282484429
2024-02-08T02:30:01.678Z,85.57077327400533
2024-02-08T02:45:02.342Z,85.64419892973149
2024-02-08T03:00:01.999Z,85.8707323980273
2024-02-08T03:15:01.667Z,85.86729204237122
2024-02-08T03:30:02.338Z,86.02726871563897
2024-02-08T03:45:02.036Z,86.30886889802348
2024-02-08T04:00:01.823Z,86.41672159192743
2024-02-08T04:15:02.515Z,86.55198234246481
2024-02-08T04:30:02.197Z,86.61027242404602
2024-02-08T04:45:01.941Z,86.73766131998097
2024-02-08T05:00:01.643Z,86.77353577671798
2024-02-08T05:15:02.328Z,86.88169134306982
2024-02-08T05:30:02.533Z,87.24229507202048
2024-02-08T05:45:02.231Z,87.3726472023171
2024-02-08T06:00:02.417Z,87.53564467074939
2024-02-08T06:15:02.208Z,87.5902412570511
2024-02-08T06:30:02.049Z,87.6963762452049
2024-02-08T06:45:01.833Z,87.80114263863646
2024-02-08T07:00:02.500Z,87.97209974529825
2024-02-08T07:15:02.257Z,87.95158423088643
2024-02-08T07:30:01.938Z,88.18818952960446
2024-02-08T07:45:01.616Z,88.41864439808306
2024-02-08T08:00:02.354Z,88.59826601331257
2024-02-08T08:15:02.126Z,88.69169848514828
2024-02-08T08:30:01.885Z,88.68749101984268
2024-02-08T08:45:02.609Z,88.98207773651104
2024-02-08T09:00:02.382Z,89.00557490594365
2024-02-08T09:15:02.362Z,89.21311547209203
2024-02-08T09:30:02.107Z,89.20864123628652
2024-02-08T09:45:01.782Z,89.2108476946534
2024-02-08T10:00:02.909Z,89.10221065814731
2024-02-08T10:15:02.203Z,89.03386905706
2024-02-08T10:30:02.000Z,88.86287682778763
2024-02-08T10:45:01.691Z,88.71096372245756
2024-02-08T11:00:02.436Z,88.52367629967429
2024-02-08T11:15:02.163Z,88.25930633052185
2024-02-08T11:30:01.871Z,87.94011008528861
2024-02-08T11:45:02.780Z,87.72235146450181
2024-02-08T12:00:02.495Z,87.39446733017262
2024-02-08T12:15:02.219Z,87.13072383108708
2024-02-08T12:30:01.994Z,86.79176343721353
2024-02-08T12:45:01.704Z,86.24021543713677
2024-02-08T13:00:02.502Z,86.00522206489003
2024-02-08T13:15:02.187Z,85.82220277109374
2024-02-08T13:30:02.110Z,85.55030858155817
2024-02-08T13:45:01.964Z,85.53290785682016
2024-02-08T14:00:01.654Z,85.54976523497474
2024-02-08T14:15:02.326Z,85.62677176772692
2024-02-08T14:30:02.007Z,85.66666976150272
2024-02-08T14:45:01.703Z,85.65839479156496
2024-02-08T15:00:02.407Z,85.59134836700065
2024-02-08T15:15:02.055Z,85.50846097100673
2024-02-08T15:30:01.772Z,85.58325951651402
2024-02-08T15:45:02.450Z,85.55826935878538
2024-02-08T16:00:02.449Z,85.50030253151938
2024-02-08T16:15:02.224Z,85.50153192403803
2024-02-08T16:30:01.908Z,85.53493925237603
2024-02-08T16:45:02.593Z,85.52004561887243
2024-02-08T17:00:02.283Z,85.62321015841304
2024-02-08T17:15:02.035Z,85.71109852848612
2024-02-08T17:30:01.741Z,85.75040716174904
2024-02-08T17:45:02.885Z,85.85717658300958
2024-02-08T18:00:01.999Z,85.99170493579828
2024-02-08T18:15:01.919Z,86.0367809048207
2024-02-08T18:30:01.743Z,86.27030191534224
2024-02-08T18:45:02.415Z,86.28760557353405
2024-02-08T19:00:02.170Z,86.52040302110633
2024-02-08T19:15:01.897Z,86.59634716742225
2024-02-08T19:30:01.693Z,86.65507638495102
2024-02-08T19:45:02.366Z,86.79670917606592
2024-02-08T20:00:02.118Z,86.74268719581643
2024-02-08T20:15:01.853Z,86.77363867834117
2024-02-08T20:30:02.597Z,86.98240806180698
2024-02-08T20:45:02.277Z,87.25655168696534
2024-02-08T21:00:01.913Z,87.41681259097794
2024-02-08T21:15:01.703Z,87.63192761858234
2024-02-08T21:30:02.453Z,87.75602526418133
2024-02-08T21:45:02.083Z,87.87485830873408
2024-02-08T22:00:01.764Z,88.09789490331079
2024-02-08T22:15:02.433Z,88.25003818100129
2024-02-08T22:30:02.082Z,88.62774080939143
2024-02-08T22:45:01.807Z,88.74470077230256
2024-02-08T23:00:01.604Z,88.87931961771343
2024-02-08T23:15:02.271Z,88.94085305640552
2024-02-08T23:30:01.946Z,89.14569283417671
2024-02-08T23:45:01.662Z,89.30156001442153
